TimeEST,TemperatureF,Dew PointF,Humidity,Sea Level PressureIn,VisibilityMPH,Wind Direction,Wind SpeedMPH,Gust SpeedMPH,PrecipitationIn,Events,Conditions,WindDirDegrees,DateUTC
12:32 AM,28.4,26.6,93,30.37,2.5,Calm,Calm,-,N/A,,Clear,0,2013-01-09 05:32:00
12:53 AM,30.0,28.0,92,30.37,2.5,Calm,Calm,-,N/A,,Clear,0,2013-01-09 05:53:00
12:59 AM,28.4,26.6,93,30.36,0.8,Calm,Calm,-,N/A,,Clear,0,2013-01-09 05:59:00
1:15 AM,28.4,28.4,100,30.36,1.5,Calm,Calm,-,N/A,,Clear,0,2013-01-09 06:15:00
1:27 AM,28.4,26.6,93,30.37,0.2,Calm,Calm,-,N/A,Fog,Light Freezing Fog,0,2013-01-09 06:27:00
1:38 AM,28.4,26.6,93,30.37,0.5,Calm,Calm,-,N/A,Fog,Light Freezing Fog,0,2013-01-09 06:38:00
1:51 AM,28.4,26.6,93,30.37,1.0,Calm,Calm,-,N/A,,Clear,0,2013-01-09 06:51:00
1:53 AM,28.0,26.1,92,30.38,1.0,Calm,Calm,-,N/A,,Mist,0,2013-01-09 06:53:00
2:02 AM,26.6,24.8,93,30.37,0.2,Calm,Calm,-,N/A,Fog,Light Freezing Fog,0,2013-01-09 07:02:00
2:24 AM,28.4,26.6,93,30.36,1.0,Calm,Calm,-,N/A,,Mist,0,2013-01-09 07:24:00
2:27 AM,28.4,26.6,93,30.36,2.0,Calm,Calm,-,N/A,,Partly Cloudy,0,2013-01-09 07:27:00
2:47 AM,26.6,24.8,93,30.37,0.8,Calm,Calm,-,N/A,,Mist,0,2013-01-09 07:47:00
2:53 AM,27.0,24.1,89,30.37,0.5,Calm,Calm,-,N/A,Fog,Light Freezing Fog,0,2013-01-09 07:53:00
2:58 AM,26.6,24.8,93,30.37,1.8,Calm,Calm,-,N/A,,Partly Cloudy,0,2013-01-09 07:58:00
3:05 AM,26.6,24.8,93,30.37,3.0,Calm,Calm,-,N/A,,Partly Cloudy,0,2013-01-09 08:05:00
3:12 AM,26.6,24.8,93,30.37,1.8,Calm,Calm,-,N/A,,Partly Cloudy,0,2013-01-09 08:12:00
3:15 AM,26.6,24.8,93,30.37,0.8,Calm,Calm,-,N/A,,Mist,0,2013-01-09 08:15:00
3:38 AM,26.6,23.0,86,30.38,0.2,Calm,Calm,-,N/A,Fog,Light Freezing Fog,0,2013-01-09 08:38:00
3:53 AM,27.0,25.0,92,30.38,0.2,Calm,Calm,-,N/A,Fog,Light Freezing Fog,0,2013-01-09 08:53:00
4:02 AM,24.8,24.8,100,30.37,0.5,Calm,Calm,-,N/A,Fog,Light Freezing Fog,0,2013-01-09 09:02:00
4:09 AM,24.8,24.8,100,30.37,1.5,Calm,Calm,-,N/A,,Partly Cloudy,0,2013-01-09 09:09:00
4:16 AM,24.8,24.8,100,30.36,2.0,Calm,Calm,-,N/A,,Partly Cloudy,0,2013-01-09 09:16:00
4:18 AM,24.8,24.8,100,30.36,1.0,Calm,Calm,-,N/A,,Mist,0,2013-01-09 09:18:00
4:22 AM,26.6,24.8,93,30.36,0.8,Calm,Calm,-,N/A,,Clear,0,2013-01-09 09:22:00
4:41 AM,26.6,24.8,93,30.37,2.0,Calm,Calm,-,N/A,,Clear,0,2013-01-09 09:41:00
4:53 AM,25.0,23.0,92,30.36,4.0,Calm,Calm,-,N/A,,Clear,0,2013-01-09 09:53:00
5:53 AM,24.1,21.0,88,30.36,5.0,Calm,Calm,-,N/A,,Clear,0,2013-01-09 10:53:00
6:53 AM,24.1,21.0,88,30.39,5.0,Calm,Calm,-,N/A,,Clear,0,2013-01-09 11:53:00
7:53 AM,24.1,21.9,91,30.39,5.0,Calm,Calm,-,N/A,,Clear,0,2013-01-09 12:53:00
8:53 AM,30.9,28.9,92,30.39,4.0,Calm,Calm,-,N/A,,Clear,0,2013-01-09 13:53:00
9:53 AM,37.0,33.1,86,30.38,5.0,Calm,Calm,-,N/A,,Clear,0,2013-01-09 14:53:00
10:53 AM,39.9,34.0,79,30.35,4.0,Calm,Calm,-,N/A,,Haze,0,2013-01-09 15:53:00
11:53 AM,43.0,34.0,71,30.30,7.0,South,6.9,-,N/A,,Clear,190,2013-01-09 16:53:00
12:53 PM,45.0,35.1,68,30.21,7.0,South,8.1,-,N/A,,Clear,180,2013-01-09 17:53:00
1:53 PM,45.0,34.0,65,30.22,7.0,SW,6.9,-,N/A,,Clear,220,2013-01-09 18:53:00
2:53 PM,45.0,36.0,71,30.19,6.0,SSW,6.9,-,N/A,,Haze,200,2013-01-09 19:53:00
3:53 PM,44.1,36.0,73,30.17,6.0,SSW,6.9,-,N/A,,Haze,210,2013-01-09 20:53:00
4:53 PM,44.6,37.4,76,30.06,7.0,South,11.5,-,N/A,,Overcast,180,2013-01-09 21:53:00
5:53 PM,45.0,39.0,80,30.07,9.0,SW,8.1,-,0.00,,Scattered Clouds,230,2013-01-09 22:53:00
6:53 PM,46.9,39.0,74,30.06,10.0,SW,15.0,25.3,N/A,,Overcast,230,2013-01-09 23:53:00
7:53 PM,46.0,37.9,73,30.06,10.0,WSW,13.8,-,N/A,,Clear,250,2013-01-10 00:53:00
8:53 PM,45.0,37.0,74,30.06,10.0,WSW,13.8,23.0,N/A,,Clear,250,2013-01-10 01:53:00
9:53 PM,46.0,35.1,66,30.06,10.0,West,16.1,26.5,N/A,,Clear,260,2013-01-10 02:53:00
10:53 PM,44.1,34.0,68,30.07,10.0,West,13.8,21.9,N/A,,Clear,270,2013-01-10 03:53:00
11:53 PM,45.0,33.1,63,30.09,10.0,West,13.8,21.9,N/A,,Clear,270,2013-01-10 04:53:00